PWSweather.com
Personal Weather Stations
Station Observations
PWSLORIS
The Farm At Fox Bay, Loris, SC 29569

The Farm At Fox BayLoris, SC 29569

Lat: 34.067097, Lon: -78.86907

Elevation: 108

Station Type: Davis Vantage Pro2 with 24 hr. FARS and solar

http://www.lorisweather.com

High Low Average
Temperature 90.6°F32.6°F 68.7°F20.4°F 78.6°F25.9°F
Dew Point 75.4°F24.1°F 67.3°F19.6°F 71.0°F21.7°F
Winds 4.6 mph W7.4 mph W Calm Calm 0.8 mph 1.3 mph
Wind Gusts 11.5 mph18.5 mph -- 2.2 mph3.5 mph
Humidity 96% 52% 79%
Pressure 29.90 in1012.50 in 29.80 in1009.10 in -
Precipitation 0.32 in8.10 in - -
Hour Temp Dew Point Humidity Winds Wind Gusts Pressure Precip Precip Rate Daily Precip Total
12:00 AM 71.7°F22.1°C 68.9°F20.5°C 91% Calm Calm -- 29.90 in1012.5 mb - 0.00 in0.0 mm 0.00 in0.0 mm
12:15 AM 71.8°F22.1°C 68.7°F20.4°C 90% Calm Calm -- 29.90 in1012.5 mb - 0.00 in0.0 mm 0.00 in0.0 mm
12:30 AM 71.7°F22.1°C 68.9°F20.5°C 91% Calm Calm -- 29.90 in1012.5 mb - 0.00 in0.0 mm 0.00 in0.0 mm
12:45 AM 71.1°F21.7°C 68.3°F20.2°C 91% Calm Calm -- 29.90 in1012.5 mb - 0.00 in0.0 mm 0.00 in0.0 mm
01:00 AM 70.9°F21.6°C 68.5°F20.3°C 92% Calm Calm -- 29.89 in1012.2 mb - 0.00 in0.0 mm 0.00 in0.0 mm
01:15 AM 70.9°F21.6°C 68.8°F20.4°C 93% Calm Calm -- 29.90 in1012.5 mb - 0.00 in0.0 mm 0.00 in0.0 mm
01:30 AM 70.8°F21.6°C 68.7°F20.4°C 93% Calm Calm -- 29.90 in1012.5 mb - 0.00 in0.0 mm 0.00 in0.0 mm
01:45 AM 70.4°F21.3°C 68.3°F20.2°C 93% Calm Calm -- 29.89 in1012.2 mb - 0.00 in0.0 mm 0.00 in0.0 mm
02:00 AM 70.4°F21.3°C 68.6°F20.3°C 94% Calm Calm -- 29.89 in1012.2 mb - 0.00 in0.0 mm 0.00 in0.0 mm
02:15 AM 70.1°F21.2°C 68.3°F20.2°C 94% Calm Calm -- 29.88 in1011.9 mb - 0.00 in0.0 mm 0.00 in0.0 mm
02:30 AM 70.0°F21.1°C 68.2°F20.1°C 94% Calm Calm -- 29.88 in1011.9 mb - 0.00 in0.0 mm 0.00 in0.0 mm
02:45 AM 69.7°F20.9°C 67.9°F19.9°C 94% Calm Calm -- 29.87 in1011.5 mb - 0.00 in0.0 mm 0.00 in0.0 mm
03:00 AM 69.7°F20.9°C 68.2°F20.1°C 95% Calm Calm -- 29.87 in1011.5 mb - 0.00 in0.0 mm 0.00 in0.0 mm
03:15 AM 69.9°F21.1°C 68.4°F20.2°C 95% Calm Calm -- 29.87 in1011.5 mb - 0.00 in0.0 mm 0.00 in0.0 mm
03:30 AM 69.8°F21.0°C 68.0°F20.0°C 94% Calm Calm -- 29.86 in1011.2 mb - 0.00 in0.0 mm 0.00 in0.0 mm
03:45 AM 69.1°F20.6°C 67.7°F19.8°C 95% Calm Calm -- 29.87 in1011.5 mb - 0.00 in0.0 mm 0.00 in0.0 mm
04:00 AM 69.0°F20.6°C 67.5°F19.7°C 95% Calm Calm -- 29.86 in1011.2 mb - 0.00 in0.0 mm 0.00 in0.0 mm
04:15 AM 68.8°F20.4°C 67.3°F19.6°C 95% Calm Calm -- 29.87 in1011.5 mb - 0.00 in0.0 mm 0.00 in0.0 mm
04:30 AM 68.7°F20.4°C 67.5°F19.7°C 96% Calm Calm -- 29.86 in1011.2 mb - 0.00 in0.0 mm 0.00 in0.0 mm
04:45 AM 68.8°F20.4°C 67.6°F19.8°C 96% Calm Calm -- 29.86 in1011.2 mb - 0.00 in0.0 mm 0.00 in0.0 mm
05:00 AM 69.3°F20.7°C 68.1°F20.1°C 96% Calm Calm -- 29.85 in1010.8 mb - 0.00 in0.0 mm 0.00 in0.0 mm
05:15 AM 69.6°F20.9°C 68.1°F20.1°C 95% Calm Calm -- 29.84 in1010.5 mb - 0.00 in0.0 mm 0.00 in0.0 mm
05:30 AM 69.6°F20.9°C 67.8°F19.9°C 94% Calm Calm -- 29.84 in1010.5 mb - 0.00 in0.0 mm 0.00 in0.0 mm
05:45 AM 69.4°F20.8°C 67.6°F19.8°C 94% Calm Calm -- 29.83 in1010.2 mb - 0.00 in0.0 mm 0.00 in0.0 mm
06:00 AM 69.7°F20.9°C 67.6°F19.8°C 93% Calm Calm -- 29.82 in1009.8 mb - 0.00 in0.0 mm 0.00 in0.0 mm
06:15 AM 70.2°F21.2°C 67.8°F19.9°C 92% Calm Calm -- 29.83 in1010.2 mb - 0.00 in0.0 mm 0.00 in0.0 mm
06:30 AM 70.1°F21.2°C 67.7°F19.8°C 92% Calm Calm -- 29.83 in1010.2 mb - 0.00 in0.0 mm 0.00 in0.0 mm
06:45 AM 70.3°F21.3°C 67.9°F19.9°C 92% Calm Calm -- 29.83 in1010.2 mb - 0.00 in0.0 mm 0.00 in0.0 mm
07:00 AM 70.5°F21.4°C 68.1°F20.1°C 92% Calm Calm -- 29.84 in1010.5 mb - 0.00 in0.0 mm 0.00 in0.0 mm
07:15 AM 70.5°F21.4°C 67.7°F19.8°C 91% Calm Calm -- 29.84 in1010.5 mb - 0.00 in0.0 mm 0.00 in0.0 mm
07:30 AM 70.7°F21.5°C 68.0°F20.0°C 91% Calm Calm -- 29.84 in1010.5 mb - 0.00 in0.0 mm 0.00 in0.0 mm
07:45 AM 72.2°F22.3°C 68.8°F20.4°C 89% Calm Calm -- 29.85 in1010.8 mb - 0.00 in0.0 mm 0.00 in0.0 mm
08:00 AM 73.7°F23.2°C 69.3°F20.7°C 86% Calm Calm -- 29.85 in1010.8 mb - 0.00 in0.0 mm 0.00 in0.0 mm
08:15 AM 74.8°F23.8°C 70.0°F21.1°C 85% Calm Calm -- 29.86 in1011.2 mb - 0.00 in0.0 mm 0.00 in0.0 mm
08:30 AM 76.0°F24.4°C 70.5°F21.4°C 83% Calm Calm 1.2 mph1.9 kmh 29.87 in1011.5 mb - 0.00 in0.0 mm 0.00 in0.0 mm
08:45 AM 77.1°F25.1°C 71.2°F21.8°C 82% Calm Calm 2.3 mph3.7 kmh 29.87 in1011.5 mb - 0.00 in0.0 mm 0.00 in0.0 mm
09:00 AM 78.7°F25.9°C 72.0°F22.2°C 80% Calm Calm 1.2 mph1.9 kmh 29.88 in1011.9 mb - 0.00 in0.0 mm 0.00 in0.0 mm
09:15 AM 79.8°F26.6°C 72.0°F22.2°C 77% 1.2 mph S1.9 kmh S 3.5 mph5.6 kmh 29.88 in1011.9 mb - 0.00 in0.0 mm 0.00 in0.0 mm
09:30 AM 80.6°F27.0°C 72.7°F22.6°C 77% 3.5 mph NW5.6 kmh NW 8.1 mph13.0 kmh 29.89 in1012.2 mb - 0.00 in0.0 mm 0.00 in0.0 mm
09:45 AM 81.8°F27.7°C 73.9°F23.3°C 77% 1.2 mph SSW1.9 kmh SSW 3.5 mph5.6 kmh 29.89 in1012.2 mb - 0.00 in0.0 mm 0.00 in0.0 mm
10:00 AM 83.0°F28.3°C 74.3°F23.5°C 75% 3.5 mph NW5.6 kmh NW 5.8 mph9.3 kmh 29.89 in1012.2 mb - 0.00 in0.0 mm 0.00 in0.0 mm
10:15 AM 83.0°F28.3°C 73.9°F23.3°C 74% Calm Calm -- 29.88 in1011.9 mb - 0.00 in0.0 mm 0.00 in0.0 mm
10:30 AM 84.3°F29.1°C 73.9°F23.3°C 71% 3.5 mph WNW5.6 kmh WNW 9.2 mph14.8 kmh 29.89 in1012.2 mb - 0.00 in0.0 mm 0.00 in0.0 mm
10:45 AM 84.7°F29.3°C 74.3°F23.5°C 71% 3.5 mph NW5.6 kmh NW 4.6 mph7.4 kmh 29.89 in1012.2 mb - 0.00 in0.0 mm 0.00 in0.0 mm
11:00 AM 85.5°F29.7°C 74.6°F23.7°C 70% 2.3 mph WNW3.7 kmh WNW 8.1 mph13.0 kmh 29.89 in1012.2 mb - 0.00 in0.0 mm 0.00 in0.0 mm
11:15 AM 86.0°F30.0°C 75.1°F23.9°C 70% 2.3 mph WNW3.7 kmh WNW 8.1 mph13.0 kmh 29.90 in1012.5 mb - 0.00 in0.0 mm 0.00 in0.0 mm
11:30 AM 86.8°F30.4°C 75.0°F23.9°C 68% 1.2 mph WSW1.9 kmh WSW 3.5 mph5.6 kmh 29.87 in1011.5 mb - 0.00 in0.0 mm 0.00 in0.0 mm
11:45 AM 86.6°F30.3°C 73.0°F22.8°C 64% 2.3 mph W3.7 kmh W 4.6 mph7.4 kmh 29.87 in1011.5 mb - 0.00 in0.0 mm 0.00 in0.0 mm
12:00 PM 87.5°F30.8°C 73.8°F23.2°C 64% 2.3 mph WNW3.7 kmh WNW 5.8 mph9.3 kmh 29.86 in1011.2 mb - 0.00 in0.0 mm 0.00 in0.0 mm
12:15 PM 87.8°F31.0°C 73.2°F22.9°C 62% 1.2 mph NW1.9 kmh NW 3.5 mph5.6 kmh 29.86 in1011.2 mb - 0.00 in0.0 mm 0.00 in0.0 mm
12:30 PM 87.8°F31.0°C 72.6°F22.6°C 61% 3.5 mph W5.6 kmh W 3.5 mph5.6 kmh 29.85 in1010.8 mb - 0.00 in0.0 mm 0.00 in0.0 mm
12:45 PM 88.3°F31.3°C 73.1°F22.8°C 61% 1.2 mph NW1.9 kmh NW 3.5 mph5.6 kmh 29.85 in1010.8 mb - 0.00 in0.0 mm 0.00 in0.0 mm
01:00 PM 86.2°F30.1°C 72.6°F22.6°C 64% 2.3 mph NW3.7 kmh NW 8.1 mph13.0 kmh 29.87 in1011.5 mb - 0.00 in0.0 mm 0.00 in0.0 mm
01:15 PM 86.2°F30.1°C 73.5°F23.1°C 66% Calm Calm 2.3 mph3.7 kmh 29.86 in1011.2 mb - 0.00 in0.0 mm 0.00 in0.0 mm
01:30 PM 87.6°F30.9°C 74.4°F23.6°C 65% Calm Calm 1.2 mph1.9 kmh 29.86 in1011.2 mb - 0.00 in0.0 mm 0.00 in0.0 mm
01:45 PM 87.8°F31.0°C 74.1°F23.4°C 64% 3.5 mph SSW5.6 kmh SSW 6.9 mph11.1 kmh 29.85 in1010.8 mb - 0.00 in0.0 mm 0.00 in0.0 mm
02:00 PM 87.7°F30.9°C 75.0°F23.9°C 66% 1.2 mph NW1.9 kmh NW 11.5 mph18.5 kmh 29.86 in1011.2 mb - 0.00 in0.0 mm 0.00 in0.0 mm
02:15 PM 89.1°F31.7°C 75.4°F24.1°C 64% Calm Calm 2.3 mph3.7 kmh 29.85 in1010.8 mb - 0.00 in0.0 mm 0.00 in0.0 mm
02:30 PM 89.8°F32.1°C 74.6°F23.7°C 61% 1.2 mph NW1.9 kmh NW 2.3 mph3.7 kmh 29.85 in1010.8 mb - 0.00 in0.0 mm 0.00 in0.0 mm
02:45 PM 89.6°F32.0°C 72.9°F22.7°C 58% 2.3 mph W3.7 kmh W 4.6 mph7.4 kmh 29.84 in1010.5 mb - 0.00 in0.0 mm 0.00 in0.0 mm
03:00 PM 90.4°F32.4°C 73.6°F23.1°C 58% 2.3 mph WSW3.7 kmh WSW 6.9 mph11.1 kmh 29.84 in1010.5 mb - 0.00 in0.0 mm 0.00 in0.0 mm
03:15 PM 90.1°F32.3°C 71.8°F22.1°C 55% 3.5 mph NW5.6 kmh NW 9.2 mph14.8 kmh 29.84 in1010.5 mb - 0.00 in0.0 mm 0.00 in0.0 mm
03:30 PM 89.5°F31.9°C 69.5°F20.8°C 52% 4.6 mph W7.4 kmh W 9.2 mph14.8 kmh 29.84 in1010.5 mb - 0.00 in0.0 mm 0.00 in0.0 mm
03:45 PM 90.6°F32.6°C 72.2°F22.3°C 55% 2.3 mph NW3.7 kmh NW 5.8 mph9.3 kmh 29.83 in1010.2 mb - 0.00 in0.0 mm 0.00 in0.0 mm
04:00 PM 90.5°F32.5°C 71.0°F21.7°C 53% 3.5 mph NW5.6 kmh NW 5.8 mph9.3 kmh 29.82 in1009.8 mb - 0.00 in0.0 mm 0.00 in0.0 mm
04:15 PM 90.6°F32.6°C 72.2°F22.3°C 55% 1.2 mph NNW1.9 kmh NNW 4.6 mph7.4 kmh 29.81 in1009.5 mb - 0.00 in0.0 mm 0.00 in0.0 mm
04:30 PM 89.9°F32.2°C 72.7°F22.6°C 57% 1.2 mph SSE1.9 kmh SSE 2.3 mph3.7 kmh 29.81 in1009.5 mb - 0.00 in0.0 mm 0.00 in0.0 mm
04:45 PM 89.9°F32.2°C 73.1°F22.8°C 58% Calm Calm 2.3 mph3.7 kmh 29.81 in1009.5 mb - 0.00 in0.0 mm 0.00 in0.0 mm
05:00 PM 89.1°F31.7°C 72.4°F22.4°C 58% 2.3 mph WNW3.7 kmh WNW 3.5 mph5.6 kmh 29.81 in1009.5 mb - 0.00 in0.0 mm 0.00 in0.0 mm
05:15 PM 90.2°F32.3°C 73.4°F23.0°C 58% 1.2 mph ESE1.9 kmh ESE 2.3 mph3.7 kmh 29.82 in1009.8 mb - 0.00 in0.0 mm 0.00 in0.0 mm
05:30 PM 89.8°F32.1°C 72.0°F22.2°C 56% 3.5 mph S5.6 kmh S 4.6 mph7.4 kmh 29.82 in1009.8 mb - 0.00 in0.0 mm 0.00 in0.0 mm
05:45 PM 89.5°F31.9°C 73.3°F22.9°C 59% 1.2 mph E1.9 kmh E 1.2 mph1.9 kmh 29.81 in1009.5 mb - 0.00 in0.0 mm 0.00 in0.0 mm
07:00 PM 87.1°F30.6°C 74.8°F23.8°C 67% Calm Calm 5.8 mph9.3 kmh 29.80 in1009.1 mb - 0.00 in0.0 mm 0.00 in0.0 mm
07:15 PM 86.3°F30.2°C 74.5°F23.6°C 68% 1.2 mph SE1.9 kmh SE 3.5 mph5.6 kmh 29.80 in1009.1 mb - 0.00 in0.0 mm 0.00 in0.0 mm
07:30 PM 85.6°F29.8°C 74.3°F23.5°C 69% Calm Calm -- 29.80 in1009.1 mb - 0.00 in0.0 mm 0.00 in0.0 mm
07:45 PM 84.7°F29.3°C 74.3°F23.5°C 71% Calm Calm 1.2 mph1.9 kmh 29.81 in1009.5 mb - 0.00 in0.0 mm 0.00 in0.0 mm
08:00 PM 83.7°F28.7°C 74.5°F23.6°C 74% Calm Calm -- 29.82 in1009.8 mb - 0.00 in0.0 mm 0.00 in0.0 mm
08:15 PM 83.0°F28.3°C 74.6°F23.7°C 76% Calm Calm 1.2 mph1.9 kmh 29.81 in1009.5 mb - 0.00 in0.0 mm 0.00 in0.0 mm
08:30 PM 83.1°F28.4°C 74.3°F23.5°C 75% Calm Calm 1.2 mph1.9 kmh 29.81 in1009.5 mb - 0.00 in0.0 mm 0.00 in0.0 mm
08:45 PM 83.0°F28.3°C 74.3°F23.5°C 75% Calm Calm -- 29.81 in1009.5 mb - 0.00 in0.0 mm 0.00 in0.0 mm
09:00 PM 83.0°F28.3°C 73.4°F23.0°C 73% Calm Calm 2.3 mph3.7 kmh 29.84 in1010.5 mb - 0.00 in0.0 mm 0.00 in0.0 mm
09:15 PM 75.5°F24.2°C 68.9°F20.5°C 80% 1.2 mph WNW1.9 kmh WNW 4.6 mph7.4 kmh 29.87 in1011.5 mb - 0.21 in5.3 mm 0.21 in5.3 mm
09:30 PM 71.4°F21.9°C 68.6°F20.3°C 91% Calm Calm -- 29.85 in1010.8 mb - 0.11 in2.8 mm 0.29 in7.4 mm
09:45 PM 71.1°F21.7°C 69.3°F20.7°C 94% Calm Calm -- 29.86 in1011.2 mb - 0.00 in0.0 mm 0.29 in7.4 mm
10:00 PM 71.8°F22.1°C 70.3°F21.3°C 95% Calm Calm -- 29.85 in1010.8 mb - 0.00 in0.0 mm 0.29 in7.4 mm
10:15 PM 72.0°F22.2°C 70.5°F21.4°C 95% Calm Calm 1.2 mph1.9 kmh 29.86 in1011.2 mb - 0.00 in0.0 mm 0.29 in7.4 mm
10:30 PM 71.7°F22.1°C 70.5°F21.4°C 96% Calm Calm -- 29.87 in1011.5 mb - 0.00 in0.0 mm 0.29 in7.4 mm
10:45 PM 71.4°F21.9°C 69.9°F21.1°C 95% Calm Calm -- 29.87 in1011.5 mb - 0.00 in0.0 mm 0.29 in7.4 mm
11:00 PM 71.0°F21.7°C 69.8°F21.0°C 96% Calm Calm 1.2 mph1.9 kmh 29.87 in1011.5 mb - 0.00 in0.0 mm 0.29 in7.4 mm
11:15 PM 70.7°F21.5°C 69.2°F20.7°C 95% Calm Calm -- 29.88 in1011.9 mb - 0.00 in0.0 mm 0.29 in7.4 mm
11:30 PM 70.5°F21.4°C 69.3°F20.7°C 96% Calm Calm -- 29.87 in1011.5 mb - 0.00 in0.0 mm 0.29 in7.4 mm
11:45 PM 70.2°F21.2°C 69.0°F20.6°C 96% Calm Calm -- 29.87 in1011.5 mb - 0.00 in0.0 mm 0.29 in7.4 mm